Nissan Maru — JG5485 — position and weather

sailwx.info

Track history (hours):
 
Tides and Currents Weather Stations Pressure Air Temp Water Temp Dewpoint Dewpoint Depression Visibility Wind Speed Wind Dir Waves Ship Positions

Nissan Maru

Last reported at 2014-Jul-24 05:32 UTC. Time now 2014-Jul-24 06:29 UTC.
Position N 35°35' E 140°07'.

Length 108 m; draft 7.2 m.

Type: Cargo ship. MMSI: 431400593.

Date/timePositionNaut miles runAvg speedWind from/ knotsBaromVisibWave heightAir tempDewpointWater temp
2014-Jul-24 05:32N 35°35' E 140°07'3 3.4
2014-Jul-24 04:33N 35°35' E 140°03'1 1.2
2014-Jul-24 03:33N 35°34' E 140°02'0 0.0
2014-Jul-24 02:33N 35°34' E 140°02'0 0.0
2014-Jul-24 01:33N 35°34' E 140°02'0 0.0
2014-Jul-24 00:30N 35°34' E 140°02'0 0.0
2014-Jul-23 23:33N 35°34' E 140°02'0 0.0
2014-Jul-23 22:33N 35°34' E 140°02'0 0.0
2014-Jul-23 21:33N 35°34' E 140°02'0 0.0
2014-Jul-23 20:30N 35°34' E 140°02'7 7.5
2014-Jul-23 19:33N 35°30' E 139°55'8 8.4
2014-Jul-23 18:33N 35°29' E 139°44'0 0.0
2014-Jul-23 17:31N 35°29' E 139°44'0 0.0
2014-Jul-23 16:31N 35°29' E 139°44'0 0.0
2014-Jul-23 15:31N 35°29' E 139°44'0 0.0
2014-Jul-23 14:31N 35°29' E 139°44'0 0.0
2014-Jul-23 13:31N 35°29' E 139°44'0 0.0
2014-Jul-23 12:31N 35°29' E 139°44'0 0.0
2014-Jul-23 11:31N 35°29' E 139°44'0 0.0
2014-Jul-23 10:31N 35°29' E 139°44'0 0.0
2014-Jul-23 09:31N 35°29' E 139°44'0 0.0
2014-Jul-23 08:31N 35°29' E 139°44'0 0.0
2014-Jul-23 07:31N 35°29' E 139°44'0 0.0
2014-Jul-23 06:31N 35°29' E 139°44'0 0.0
2014-Jul-23 05:31N 35°29' E 139°44'0 0.0
2014-Jul-23 04:31N 35°29' E 139°44'0 0.0
2014-Jul-23 03:31N 35°29' E 139°44'0 0.0
2014-Jul-23 02:31N 35°29' E 139°44'0 0.0
2014-Jul-23 01:31N 35°29' E 139°44'0 0.0
2014-Jul-23 00:31N 35°29' E 139°44'0 0.0
2014-Jul-22 23:31N 35°29' E 139°44'0 0.0
2014-Jul-22 22:31N 35°29' E 139°44'0 0.0
2014-Jul-22 21:31N 35°29' E 139°44'0 0.0
2014-Jul-22 20:31N 35°29' E 139°44'0 0.0
2014-Jul-22 19:31N 35°29' E 139°44'0 0.0
2014-Jul-22 18:31N 35°29' E 139°44'0 0.0
2014-Jul-22 17:31N 35°29' E 139°44'0 0.0
2014-Jul-22 16:31N 35°29' E 139°44'0 0.0
2014-Jul-22 15:31N 35°29' E 139°44'0 0.0
2014-Jul-22 14:31N 35°29' E 139°44'0 0.0
2014-Jul-22 13:31N 35°29' E 139°44'0 0.0
2014-Jul-22 12:31N 35°29' E 139°44'0 0.0
2014-Jul-22 11:31N 35°29' E 139°44'0 0.0
2014-Jul-22 10:28N 35°29' E 139°44'0 0.0
2014-Jul-22 09:31N 35°29' E 139°44'0 0.0
2014-Jul-22 08:31N 35°29' E 139°44'0 0.0
2014-Jul-22 07:31N 35°29' E 139°44'0 0.0
2014-Jul-22 06:31N 35°29' E 139°44'0 0.0
2014-Jul-22 05:31N 35°29' E 139°44'0 0.0
2014-Jul-22 04:31N 35°29' E 139°44'0 0.0
2014-Jul-22 03:31N 35°29' E 139°44'0 0.0
2014-Jul-22 02:31N 35°29' E 139°44'0 0.0
2014-Jul-22 01:31N 35°29' E 139°44'0 0.0
2014-Jul-22 00:34N 35°29' E 139°44'5 4.7
2014-Jul-21 23:34N 35°25' E 139°46'1111.3
2014-Jul-21 22:34N 35°13' E 139°47'1212.0
2014-Jul-21 21:34N 35°02' E 139°41'1313.3
2014-Jul-21 20:33N 34°55' E 139°28'313.5
2014-Jul-21 20:18N 34°52' E 139°25'  
2014-Jul-18 19:30N 34°60' E 139°29'1213.3
2014-Jul-18 18:34N 35°07' E 139°42'1212.2
2014-Jul-18 17:33N 35°19' E 139°43'1010.3
2014-Jul-18 16:33N 35°29' E 139°44'0 0.1
2014-Jul-18 15:33N 35°29' E 139°44'0 0.0
2014-Jul-18 14:33N 35°29' E 139°44'0 0.0
2014-Jul-18 13:33N 35°29' E 139°44'0 0.0
2014-Jul-18 12:33N 35°29' E 139°44'0 0.0
2014-Jul-18 11:33N 35°29' E 139°44'0 0.0
2014-Jul-18 10:33N 35°29' E 139°44'0 0.0
2014-Jul-18 09:33N 35°29' E 139°44'0 0.0
2014-Jul-18 08:33N 35°29' E 139°44'0 0.0
2014-Jul-18 07:33N 35°29' E 139°44'0 0.0
2014-Jul-18 06:33N 35°29' E 139°44'0 0.0
2014-Jul-18 05:33N 35°29' E 139°44'0 0.0
2014-Jul-18 04:33N 35°29' E 139°44'0 0.0
2014-Jul-18 03:33N 35°29' E 139°44'0 0.0
2014-Jul-18 02:24N 35°29' E 139°44'0 0.0
2014-Jul-18 01:33N 35°29' E 139°44'0 0.0
2014-Jul-18 00:33N 35°29' E 139°44'5 5.2
2014-Jul-17 23:33N 35°24' E 139°44'0 0.1
2014-Jul-17 22:33N 35°24' E 139°44'0 0.1
2014-Jul-17 21:33N 35°24' E 139°44'0 0.1
2014-Jul-17 20:33N 35°24' E 139°44'0 0.0
2014-Jul-17 19:33N 35°24' E 139°44'0 0.1
2014-Jul-17 18:33N 35°24' E 139°44'0 0.1
2014-Jul-17 17:30N 35°24' E 139°44'0 0.0
2014-Jul-17 16:33N 35°24' E 139°44'3 3.0
2014-Jul-17 15:33N 35°21' E 139°45'1110.8
2014-Jul-17 14:33N 35°10' E 139°47'1212.2
2014-Jul-17 13:33N 35°01' E 139°37'  
2014-Jul-14 19:10N 34°50' E 139°10'913.2
2014-Jul-14 18:29N 34°58' E 139°17'1213.2
2014-Jul-14 17:33N 35°03' E 139°30'1312.8
2014-Jul-14 16:33N 35°09' E 139°44'1111.4
2014-Jul-14 15:33N 35°21' E 139°42'9 8.7
2014-Jul-14 14:34N 35°29' E 139°44'0 0.1
2014-Jul-14 13:34N 35°29' E 139°44'0 0.0
2014-Jul-14 12:34N 35°29' E 139°44'0 0.0
2014-Jul-14 11:34N 35°29' E 139°44'0 0.0
2014-Jul-14 10:34N 35°29' E 139°44'0 0.0
2014-Jul-14 09:34N 35°29' E 139°44'0 0.0
2014-Jul-14 08:33N 35°29' E 139°44'0 0.0
2014-Jul-14 07:33N 35°29' E 139°44'0 0.0
2014-Jul-14 06:27N 35°29' E 139°44'0 0.0
2014-Jul-14 05:33N 35°29' E 139°44'  
Track history (hours):
 
Tides and Currents Weather Stations Pressure Air Temp Water Temp Dewpoint Dewpoint Depression Visibility Wind Speed Wind Dir Waves Ship Positions

Nissan Maru

Last reported at 2014-Jul-24 05:32 UTC. Time now 2014-Jul-24 06:29 UTC.
Position N 35°35' E 140°07'.

Length 108 m; draft 7.2 m.

Type: Cargo ship. MMSI: 431400593.

Date/timePositionNaut miles runAvg speedWind from/ knotsBaromVisibWave heightAir tempDewpointWater temp
2014-Jul-24 05:32N 35°35' E 140°07'3 3.4
2014-Jul-24 04:33N 35°35' E 140°03'1 1.2
2014-Jul-24 03:33N 35°34' E 140°02'0 0.0
2014-Jul-24 02:33N 35°34' E 140°02'0 0.0
2014-Jul-24 01:33N 35°34' E 140°02'0 0.0
2014-Jul-24 00:30N 35°34' E 140°02'0 0.0
2014-Jul-23 23:33N 35°34' E 140°02'0 0.0
2014-Jul-23 22:33N 35°34' E 140°02'0 0.0
2014-Jul-23 21:33N 35°34' E 140°02'0 0.0
2014-Jul-23 20:30N 35°34' E 140°02'7 7.5
2014-Jul-23 19:33N 35°30' E 139°55'8 8.4
2014-Jul-23 18:33N 35°29' E 139°44'0 0.0
2014-Jul-23 17:31N 35°29' E 139°44'0 0.0
2014-Jul-23 16:31N 35°29' E 139°44'0 0.0
2014-Jul-23 15:31N 35°29' E 139°44'0 0.0
2014-Jul-23 14:31N 35°29' E 139°44'0 0.0
2014-Jul-23 13:31N 35°29' E 139°44'0 0.0
2014-Jul-23 12:31N 35°29' E 139°44'0 0.0
2014-Jul-23 11:31N 35°29' E 139°44'0 0.0
2014-Jul-23 10:31N 35°29' E 139°44'0 0.0
2014-Jul-23 09:31N 35°29' E 139°44'0 0.0
2014-Jul-23 08:31N 35°29' E 139°44'0 0.0
2014-Jul-23 07:31N 35°29' E 139°44'0 0.0
2014-Jul-23 06:31N 35°29' E 139°44'0 0.0
2014-Jul-23 05:31N 35°29' E 139°44'0 0.0
2014-Jul-23 04:31N 35°29' E 139°44'0 0.0
2014-Jul-23 03:31N 35°29' E 139°44'0 0.0
2014-Jul-23 02:31N 35°29' E 139°44'0 0.0
2014-Jul-23 01:31N 35°29' E 139°44'0 0.0
2014-Jul-23 00:31N 35°29' E 139°44'0 0.0
2014-Jul-22 23:31N 35°29' E 139°44'0 0.0
2014-Jul-22 22:31N 35°29' E 139°44'0 0.0
2014-Jul-22 21:31N 35°29' E 139°44'0 0.0
2014-Jul-22 20:31N 35°29' E 139°44'0 0.0
2014-Jul-22 19:31N 35°29' E 139°44'0 0.0
2014-Jul-22 18:31N 35°29' E 139°44'0 0.0
2014-Jul-22 17:31N 35°29' E 139°44'0 0.0
2014-Jul-22 16:31N 35°29' E 139°44'0 0.0
2014-Jul-22 15:31N 35°29' E 139°44'0 0.0
2014-Jul-22 14:31N 35°29' E 139°44'0 0.0
2014-Jul-22 13:31N 35°29' E 139°44'0 0.0
2014-Jul-22 12:31N 35°29' E 139°44'0 0.0
2014-Jul-22 11:31N 35°29' E 139°44'0 0.0
2014-Jul-22 10:28N 35°29' E 139°44'0 0.0
2014-Jul-22 09:31N 35°29' E 139°44'0 0.0
2014-Jul-22 08:31N 35°29' E 139°44'0 0.0
2014-Jul-22 07:31N 35°29' E 139°44'0 0.0
2014-Jul-22 06:31N 35°29' E 139°44'0 0.0
2014-Jul-22 05:31N 35°29' E 139°44'0 0.0
2014-Jul-22 04:31N 35°29' E 139°44'0 0.0
2014-Jul-22 03:31N 35°29' E 139°44'0 0.0
2014-Jul-22 02:31N 35°29' E 139°44'0 0.0
2014-Jul-22 01:31N 35°29' E 139°44'0 0.0
2014-Jul-22 00:34N 35°29' E 139°44'5 4.7
2014-Jul-21 23:34N 35°25' E 139°46'1111.3
2014-Jul-21 22:34N 35°13' E 139°47'1212.0
2014-Jul-21 21:34N 35°02' E 139°41'1313.3
2014-Jul-21 20:33N 34°55' E 139°28'313.5
2014-Jul-21 20:18N 34°52' E 139°25'  
2014-Jul-18 19:30N 34°60' E 139°29'1213.3
2014-Jul-18 18:34N 35°07' E 139°42'1212.2
2014-Jul-18 17:33N 35°19' E 139°43'1010.3
2014-Jul-18 16:33N 35°29' E 139°44'0 0.1
2014-Jul-18 15:33N 35°29' E 139°44'0 0.0
2014-Jul-18 14:33N 35°29' E 139°44'0 0.0
2014-Jul-18 13:33N 35°29' E 139°44'0 0.0
2014-Jul-18 12:33N 35°29' E 139°44'0 0.0
2014-Jul-18 11:33N 35°29' E 139°44'0 0.0
2014-Jul-18 10:33N 35°29' E 139°44'0 0.0
2014-Jul-18 09:33N 35°29' E 139°44'0 0.0
2014-Jul-18 08:33N 35°29' E 139°44'0 0.0
2014-Jul-18 07:33N 35°29' E 139°44'0 0.0
2014-Jul-18 06:33N 35°29' E 139°44'0 0.0
2014-Jul-18 05:33N 35°29' E 139°44'0 0.0
2014-Jul-18 04:33N 35°29' E 139°44'0 0.0
2014-Jul-18 03:33N 35°29' E 139°44'0 0.0
2014-Jul-18 02:24N 35°29' E 139°44'0 0.0
2014-Jul-18 01:33N 35°29' E 139°44'0 0.0
2014-Jul-18 00:33N 35°29' E 139°44'5 5.2
2014-Jul-17 23:33N 35°24' E 139°44'0 0.1
2014-Jul-17 22:33N 35°24' E 139°44'0 0.1
2014-Jul-17 21:33N 35°24' E 139°44'0 0.1
2014-Jul-17 20:33N 35°24' E 139°44'0 0.0
2014-Jul-17 19:33N 35°24' E 139°44'0 0.1
2014-Jul-17 18:33N 35°24' E 139°44'0 0.1
2014-Jul-17 17:30N 35°24' E 139°44'0 0.0
2014-Jul-17 16:33N 35°24' E 139°44'3 3.0
2014-Jul-17 15:33N 35°21' E 139°45'1110.8
2014-Jul-17 14:33N 35°10' E 139°47'1212.2
2014-Jul-17 13:33N 35°01' E 139°37'  
2014-Jul-14 19:10N 34°50' E 139°10'913.2
2014-Jul-14 18:29N 34°58' E 139°17'1213.2
2014-Jul-14 17:33N 35°03' E 139°30'1312.8
2014-Jul-14 16:33N 35°09' E 139°44'1111.4
2014-Jul-14 15:33N 35°21' E 139°42'9 8.7
2014-Jul-14 14:34N 35°29' E 139°44'0 0.1
2014-Jul-14 13:34N 35°29' E 139°44'0 0.0
2014-Jul-14 12:34N 35°29' E 139°44'0 0.0
2014-Jul-14 11:34N 35°29' E 139°44'0 0.0
2014-Jul-14 10:34N 35°29' E 139°44'0 0.0
2014-Jul-14 09:34N 35°29' E 139°44'0 0.0
2014-Jul-14 08:33N 35°29' E 139°44'0 0.0
2014-Jul-14 07:33N 35°29' E 139°44'0 0.0
2014-Jul-14 06:27N 35°29' E 139°44'0 0.0
2014-Jul-14 05:33N 35°29' E 139°44'  

Dump ship's entire track history